sensor_id;sensor_type;location;lat;lon;timestamp;pressure;altitude;pressure_sealevel;temperature;humidity
53754;BME280;39667;52.274;20.964;2022-07-25T00:01:48;100674.25;;;18.57;66.48
53754;BME280;39667;52.274;20.964;2022-07-25T00:04:16;100670.88;;;18.56;66.42
53754;BME280;39667;52.274;20.964;2022-07-25T00:06:44;100671.41;;;18.56;66.48
53754;BME280;39667;52.274;20.964;2022-07-25T00:09:12;100670.00;;;18.56;66.49
53754;BME280;39667;52.274;20.964;2022-07-25T00:11:40;100669.38;;;18.54;66.52
53754;BME280;39667;52.274;20.964;2022-07-25T00:14:08;100671.64;;;18.50;66.56
53754;BME280;39667;52.274;20.964;2022-07-25T00:16:36;100674.05;;;18.48;66.68
53754;BME280;39667;52.274;20.964;2022-07-25T00:19:03;100666.74;;;18.48;66.87
53754;BME280;39667;52.274;20.964;2022-07-25T00:21:30;100665.52;;;18.47;66.86
53754;BME280;39667;52.274;20.964;2022-07-25T00:23:57;100660.85;;;18.48;66.90
53754;BME280;39667;52.274;20.964;2022-07-25T00:26:24;100658.98;;;18.50;66.93
53754;BME280;39667;52.274;20.964;2022-07-25T00:28:51;100656.45;;;18.51;66.95
53754;BME280;39667;52.274;20.964;2022-07-25T00:31:17;100649.66;;;18.51;66.92
53754;BME280;39667;52.274;20.964;2022-07-25T00:33:44;100642.21;;;18.50;66.94
53754;BME280;39667;52.274;20.964;2022-07-25T00:36:11;100641.17;;;18.50;67.03
53754;BME280;39667;52.274;20.964;2022-07-25T00:38:39;100631.13;;;18.47;67.14
53754;BME280;39667;52.274;20.964;2022-07-25T00:41:05;100626.80;;;18.43;67.21
53754;BME280;39667;52.274;20.964;2022-07-25T00:43:33;100633.27;;;18.42;67.13
53754;BME280;39667;52.274;20.964;2022-07-25T00:45:59;100632.21;;;18.37;67.17
53754;BME280;39667;52.274;20.964;2022-07-25T00:48:27;100633.83;;;18.37;67.27
53754;BME280;39667;52.274;20.964;2022-07-25T00:50:55;100634.75;;;18.36;67.34
53754;BME280;39667;52.274;20.964;2022-07-25T00:53:23;100641.35;;;18.36;67.46
53754;BME280;39667;52.274;20.964;2022-07-25T00:55:51;100642.85;;;18.38;67.45
53754;BME280;39667;52.274;20.964;2022-07-25T00:58:18;100647.27;;;18.39;67.48
53754;BME280;39667;52.274;20.964;2022-07-25T01:00:47;100644.71;;;18.36;67.56
53754;BME280;39667;52.274;20.964;2022-07-25T01:03:15;100643.11;;;18.26;67.66
53754;BME280;39667;52.274;20.964;2022-07-25T01:05:43;100643.54;;;18.19;67.70
53754;BME280;39667;52.274;20.964;2022-07-25T01:08:10;100648.89;;;18.19;67.98
53754;BME280;39667;52.274;20.964;2022-07-25T01:10:38;100644.45;;;18.19;68.11
53754;BME280;39667;52.274;20.964;2022-07-25T01:13:05;100642.02;;;18.17;68.18
53754;BME280;39667;52.274;20.964;2022-07-25T01:15:31;100636.92;;;18.15;68.24
53754;BME280;39667;52.274;20.964;2022-07-25T01:17:58;100636.05;;;18.15;68.45
53754;BME280;39667;52.274;20.964;2022-07-25T01:20:28;100636.95;;;18.15;68.46
53754;BME280;39667;52.274;20.964;2022-07-25T01:22:56;100639.67;;;18.13;68.36
53754;BME280;39667;52.274;20.964;2022-07-25T01:25:23;100636.70;;;18.11;68.58
53754;BME280;39667;52.274;20.964;2022-07-25T01:27:50;100632.73;;;18.07;68.66
53754;BME280;39667;52.274;20.964;2022-07-25T01:30:22;100632.31;;;18.09;68.67
53754;BME280;39667;52.274;20.964;2022-07-25T01:32:50;100629.64;;;18.09;68.89
53754;BME280;39667;52.274;20.964;2022-07-25T01:35:18;100626.68;;;18.07;68.80
53754;BME280;39667;52.274;20.964;2022-07-25T01:37:45;100625.65;;;18.06;69.02
53754;BME280;39667;52.274;20.964;2022-07-25T01:40:13;100625.19;;;18.04;68.90
53754;BME280;39667;52.274;20.964;2022-07-25T01:42:41;100625.03;;;18.03;69.07
53754;BME280;39667;52.274;20.964;2022-07-25T01:45:09;100628.23;;;18.04;69.23
53754;BME280;39667;52.274;20.964;2022-07-25T01:47:37;100621.97;;;17.99;69.19
53754;BME280;39667;52.274;20.964;2022-07-25T01:50:05;100620.48;;;17.96;69.15
53754;BME280;39667;52.274;20.964;2022-07-25T01:52:32;100627.14;;;17.94;69.30
53754;BME280;39667;52.274;20.964;2022-07-25T01:54:59;100629.01;;;17.92;69.44
53754;BME280;39667;52.274;20.964;2022-07-25T01:57:26;100625.44;;;17.92;69.44
53754;BME280;39667;52.274;20.964;2022-07-25T01:59:57;100623.33;;;17.91;69.44
53754;BME280;39667;52.274;20.964;2022-07-25T02:02:24;100627.95;;;17.91;69.61
53754;BME280;39667;52.274;20.964;2022-07-25T02:04:53;100625.60;;;17.92;69.74
53754;BME280;39667;52.274;20.964;2022-07-25T02:07:20;100624.98;;;17.89;69.49
53754;BME280;39667;52.274;20.964;2022-07-25T02:09:47;100628.14;;;17.86;69.67
53754;BME280;39667;52.274;20.964;2022-07-25T02:12:20;100624.52;;;17.82;69.85
53754;BME280;39667;52.274;20.964;2022-07-25T02:14:47;100624.77;;;17.80;69.69
53754;BME280;39667;52.274;20.964;2022-07-25T02:17:14;100617.83;;;17.80;69.80
53754;BME280;39667;52.274;20.964;2022-07-25T02:19:41;100618.39;;;17.79;69.94
53754;BME280;39667;52.274;20.964;2022-07-25T02:22:08;100621.43;;;17.79;69.96
53754;BME280;39667;52.274;20.964;2022-07-25T02:24:35;100618.98;;;17.77;69.95
53754;BME280;39667;52.274;20.964;2022-07-25T02:27:03;100615.69;;;17.76;70.03
53754;BME280;39667;52.274;20.964;2022-07-25T02:29:30;100611.05;;;17.71;70.21
53754;BME280;39667;52.274;20.964;2022-07-25T02:31:58;100618.55;;;17.70;70.25
53754;BME280;39667;52.274;20.964;2022-07-25T02:34:25;100617.73;;;17.68;70.19
53754;BME280;39667;52.274;20.964;2022-07-25T02:36:52;100617.95;;;17.67;70.23
53754;BME280;39667;52.274;20.964;2022-07-25T02:39:20;100622.13;;;17.64;70.05
53754;BME280;39667;52.274;20.964;2022-07-25T02:41:47;100623.07;;;17.57;70.12
53754;BME280;39667;52.274;20.964;2022-07-25T02:44:14;100622.72;;;17.53;70.26
53754;BME280;39667;52.274;20.964;2022-07-25T02:46:40;100625.71;;;17.53;70.39
53754;BME280;39667;52.274;20.964;2022-07-25T02:49:08;100622.80;;;17.55;70.39
53754;BME280;39667;52.274;20.964;2022-07-25T02:51:35;100622.09;;;17.55;70.42
53754;BME280;39667;52.274;20.964;2022-07-25T02:54:02;100628.15;;;17.55;70.33
53754;BME280;39667;52.274;20.964;2022-07-25T02:56:29;100628.73;;;17.54;70.60
53754;BME280;39667;52.274;20.964;2022-07-25T02:58:58;100628.55;;;17.54;70.40
53754;BME280;39667;52.274;20.964;2022-07-25T03:01:25;100636.17;;;17.49;70.16
53754;BME280;39667;52.274;20.964;2022-07-25T03:03:52;100636.55;;;17.48;70.42
53754;BME280;39667;52.274;20.964;2022-07-25T03:06:19;100632.98;;;17.49;70.56
53754;BME280;39667;52.274;20.964;2022-07-25T03:08:46;100633.48;;;17.50;70.47
53754;BME280;39667;52.274;20.964;2022-07-25T03:11:13;100629.36;;;17.51;70.36
53754;BME280;39667;52.274;20.964;2022-07-25T03:13:40;100626.80;;;17.48;70.26
53754;BME280;39667;52.274;20.964;2022-07-25T03:16:07;100629.54;;;17.45;70.46
53754;BME280;39667;52.274;20.964;2022-07-25T03:18:35;100630.55;;;17.47;70.43
53754;BME280;39667;52.274;20.964;2022-07-25T03:21:02;100629.75;;;17.44;70.32
53754;BME280;39667;52.274;20.964;2022-07-25T03:23:29;100628.69;;;17.44;70.51
53754;BME280;39667;52.274;20.964;2022-07-25T03:25:57;100626.92;;;17.49;70.66
53754;BME280;39667;52.274;20.964;2022-07-25T03:28:24;100628.79;;;17.52;70.64
53754;BME280;39667;52.274;20.964;2022-07-25T03:30:52;100627.89;;;17.52;70.56
53754;BME280;39667;52.274;20.964;2022-07-25T03:33:19;100620.23;;;17.52;70.52
53754;BME280;39667;52.274;20.964;2022-07-25T03:35:46;100619.34;;;17.52;70.57
53754;BME280;39667;52.274;20.964;2022-07-25T03:38:12;100619.78;;;17.55;70.61
53754;BME280;39667;52.274;20.964;2022-07-25T03:40:39;100622.02;;;17.57;70.51
53754;BME280;39667;52.274;20.964;2022-07-25T03:43:06;100630.13;;;17.60;70.61
53754;BME280;39667;52.274;20.964;2022-07-25T03:45:34;100627.44;;;17.65;70.53
53754;BME280;39667;52.274;20.964;2022-07-25T03:48:01;100633.06;;;17.67;70.32
53754;BME280;39667;52.274;20.964;2022-07-25T03:50:28;100631.89;;;17.70;70.34
53754;BME280;39667;52.274;20.964;2022-07-25T03:52:54;100628.34;;;17.70;70.25
53754;BME280;39667;52.274;20.964;2022-07-25T03:55:21;100632.77;;;17.71;70.21
53754;BME280;39667;52.274;20.964;2022-07-25T03:57:49;100632.27;;;17.70;70.26
53754;BME280;39667;52.274;20.964;2022-07-25T04:00:16;100628.09;;;17.72;70.11
53754;BME280;39667;52.274;20.964;2022-07-25T04:02:43;100626.40;;;17.74;70.18
53754;BME280;39667;52.274;20.964;2022-07-25T04:05:10;100621.63;;;17.74;70.17
53754;BME280;39667;52.274;20.964;2022-07-25T04:07:37;100621.86;;;17.77;70.25
53754;BME280;39667;52.274;20.964;2022-07-25T04:10:05;100618.95;;;17.79;70.18
53754;BME280;39667;52.274;20.964;2022-07-25T04:12:33;100624.29;;;17.84;70.14
53754;BME280;39667;52.274;20.964;2022-07-25T04:15:00;100620.25;;;17.82;69.93
53754;BME280;39667;52.274;20.964;2022-07-25T04:17:27;100622.10;;;17.81;69.87
53754;BME280;39667;52.274;20.964;2022-07-25T04:19:55;100623.97;;;17.78;69.84
53754;BME280;39667;52.274;20.964;2022-07-25T04:22:22;100624.30;;;17.79;70.11
53754;BME280;39667;52.274;20.964;2022-07-25T04:24:49;100624.73;;;17.87;70.16
53754;BME280;39667;52.274;20.964;2022-07-25T04:27:16;100627.39;;;17.92;69.89
53754;BME280;39667;52.274;20.964;2022-07-25T04:29:43;100624.66;;;17.99;69.84
53754;BME280;39667;52.274;20.964;2022-07-25T04:32:10;100625.36;;;18.04;69.47
53754;BME280;39667;52.274;20.964;2022-07-25T04:34:37;100624.72;;;18.07;69.39
53754;BME280;39667;52.274;20.964;2022-07-25T04:37:04;100621.56;;;18.11;69.12
53754;BME280;39667;52.274;20.964;2022-07-25T04:39:31;100626.27;;;18.14;69.08
53754;BME280;39667;52.274;20.964;2022-07-25T04:41:58;100622.84;;;18.15;68.96
53754;BME280;39667;52.274;20.964;2022-07-25T04:44:25;100621.33;;;18.18;68.84
53754;BME280;39667;52.274;20.964;2022-07-25T04:46:52;100619.92;;;18.22;68.86
53754;BME280;39667;52.274;20.964;2022-07-25T04:49:19;100619.53;;;18.23;68.43
53754;BME280;39667;52.274;20.964;2022-07-25T04:51:46;100620.39;;;18.24;67.86
53754;BME280;39667;52.274;20.964;2022-07-25T04:54:13;100620.84;;;18.21;67.82
53754;BME280;39667;52.274;20.964;2022-07-25T04:56:40;100620.37;;;18.24;67.86
53754;BME280;39667;52.274;20.964;2022-07-25T04:59:07;100620.93;;;18.28;67.90
53754;BME280;39667;52.274;20.964;2022-07-25T05:01:34;100619.42;;;18.30;67.90
53754;BME280;39667;52.274;20.964;2022-07-25T05:04:01;100622.48;;;18.35;67.71
53754;BME280;39667;52.274;20.964;2022-07-25T05:06:28;100621.08;;;18.34;67.14
53754;BME280;39667;52.274;20.964;2022-07-25T05:08:55;100620.08;;;18.32;67.13
53754;BME280;39667;52.274;20.964;2022-07-25T05:11:22;100618.48;;;18.32;67.19
53754;BME280;39667;52.274;20.964;2022-07-25T05:13:49;100618.11;;;18.37;66.88
53754;BME280;39667;52.274;20.964;2022-07-25T05:16:15;100614.54;;;18.42;66.69
53754;BME280;39667;52.274;20.964;2022-07-25T05:18:42;100612.45;;;18.50;66.59
53754;BME280;39667;52.274;20.964;2022-07-25T05:21:11;100613.97;;;18.57;66.58
53754;BME280;39667;52.274;20.964;2022-07-25T05:23:39;100611.98;;;18.66;66.66
53754;BME280;39667;52.274;20.964;2022-07-25T05:26:06;100607.34;;;18.72;66.42
53754;BME280;39667;52.274;20.964;2022-07-25T05:28:33;100599.52;;;18.71;66.06
53754;BME280;39667;52.274;20.964;2022-07-25T05:31:00;100597.21;;;18.70;65.87
53754;BME280;39667;52.274;20.964;2022-07-25T05:33:28;100594.02;;;18.70;65.77
53754;BME280;39667;52.274;20.964;2022-07-25T05:35:55;100591.20;;;18.69;65.65
53754;BME280;39667;52.274;20.964;2022-07-25T05:38:22;100592.45;;;18.69;65.55
53754;BME280;39667;52.274;20.964;2022-07-25T05:40:48;100591.08;;;18.72;65.77
53754;BME280;39667;52.274;20.964;2022-07-25T05:43:18;100591.77;;;18.77;65.61
53754;BME280;39667;52.274;20.964;2022-07-25T05:45:45;100582.20;;;18.80;65.48
53754;BME280;39667;52.274;20.964;2022-07-25T05:48:15;100585.90;;;18.86;65.26
53754;BME280;39667;52.274;20.964;2022-07-25T05:50:42;100583.48;;;18.92;65.08
53754;BME280;39667;52.274;20.964;2022-07-25T05:53:11;100581.69;;;18.98;64.85
53754;BME280;39667;52.274;20.964;2022-07-25T05:55:38;100586.11;;;19.07;64.55
53754;BME280;39667;52.274;20.964;2022-07-25T05:58:06;100586.60;;;19.13;64.21
53754;BME280;39667;52.274;20.964;2022-07-25T06:00:35;100579.23;;;19.14;63.76
53754;BME280;39667;52.274;20.964;2022-07-25T06:03:03;100582.77;;;19.15;63.76
53754;BME280;39667;52.274;20.964;2022-07-25T06:05:30;100580.21;;;19.16;63.60
53754;BME280;39667;52.274;20.964;2022-07-25T06:07:58;100584.15;;;19.16;63.55
53754;BME280;39667;52.274;20.964;2022-07-25T06:10:25;100582.39;;;19.16;63.40
53754;BME280;39667;52.274;20.964;2022-07-25T06:12:51;100577.88;;;19.13;63.37
53754;BME280;39667;52.274;20.964;2022-07-25T06:15:19;100581.96;;;19.13;63.52
53754;BME280;39667;52.274;20.964;2022-07-25T06:17:53;100585.71;;;19.13;63.71
53754;BME280;39667;52.274;20.964;2022-07-25T06:20:20;100581.79;;;19.17;63.75
53754;BME280;39667;52.274;20.964;2022-07-25T06:22:47;100576.14;;;19.20;63.79
53754;BME280;39667;52.274;20.964;2022-07-25T06:25:14;100571.52;;;19.24;63.75
53754;BME280;39667;52.274;20.964;2022-07-25T06:27:41;100568.05;;;19.25;63.64
53754;BME280;39667;52.274;20.964;2022-07-25T06:30:09;100563.39;;;19.31;63.62
53754;BME280;39667;52.274;20.964;2022-07-25T06:32:46;100563.84;;;19.37;63.48
53754;BME280;39667;52.274;20.964;2022-07-25T06:35:13;100557.34;;;19.43;63.56
53754;BME280;39667;52.274;20.964;2022-07-25T06:37:41;100561.23;;;19.48;63.41
53754;BME280;39667;52.274;20.964;2022-07-25T06:40:08;100555.52;;;19.51;63.45
53754;BME280;39667;52.274;20.964;2022-07-25T06:42:39;100552.08;;;19.57;63.44
53754;BME280;39667;52.274;20.964;2022-07-25T06:45:08;100549.59;;;19.65;63.50
53754;BME280;39667;52.274;20.964;2022-07-25T06:47:39;100552.23;;;19.69;63.25
53754;BME280;39667;52.274;20.964;2022-07-25T06:50:09;100547.56;;;19.74;62.96
53754;BME280;39667;52.274;20.964;2022-07-25T06:52:38;100545.43;;;19.74;62.60
53754;BME280;39667;52.274;20.964;2022-07-25T06:55:07;100544.27;;;19.76;62.45
53754;BME280;39667;52.274;20.964;2022-07-25T06:57:35;100540.38;;;19.78;62.09
53754;BME280;39667;52.274;20.964;2022-07-25T07:00:07;100535.27;;;19.81;62.11
53754;BME280;39667;52.274;20.964;2022-07-25T07:02:49;100539.98;;;19.88;62.12
53754;BME280;39667;52.274;20.964;2022-07-25T07:05:18;100539.80;;;19.96;61.82
53754;BME280;39667;52.274;20.964;2022-07-25T07:07:46;100539.94;;;20.00;61.49
53754;BME280;39667;52.274;20.964;2022-07-25T07:10:15;100539.96;;;20.04;61.48
53754;BME280;39667;52.274;20.964;2022-07-25T07:12:42;100539.50;;;20.11;61.38
53754;BME280;39667;52.274;20.964;2022-07-25T07:15:09;100540.30;;;20.16;60.90
53754;BME280;39667;52.274;20.964;2022-07-25T07:17:37;100539.20;;;20.21;60.58
53754;BME280;39667;52.274;20.964;2022-07-25T07:20:06;100539.52;;;20.26;60.32
53754;BME280;39667;52.274;20.964;2022-07-25T07:22:45;100540.63;;;20.33;60.10
53754;BME280;39667;52.274;20.964;2022-07-25T07:25:14;100539.20;;;20.36;59.86
53754;BME280;39667;52.274;20.964;2022-07-25T07:27:43;100533.01;;;20.39;59.87
53754;BME280;39667;52.274;20.964;2022-07-25T07:30:11;100528.67;;;20.44;59.64
53754;BME280;39667;52.274;20.964;2022-07-25T07:32:41;100525.21;;;20.48;59.48
53754;BME280;39667;52.274;20.964;2022-07-25T07:35:09;100517.90;;;20.55;59.30
53754;BME280;39667;52.274;20.964;2022-07-25T07:37:37;100523.21;;;20.64;59.26
53754;BME280;39667;52.274;20.964;2022-07-25T07:40:10;100519.06;;;20.72;59.30
53754;BME280;39667;52.274;20.964;2022-07-25T07:42:45;100512.43;;;20.76;58.73
53754;BME280;39667;52.274;20.964;2022-07-25T07:45:23;100516.66;;;20.77;58.06
53754;BME280;39667;52.274;20.964;2022-07-25T07:47:54;100516.70;;;20.76;57.57
53754;BME280;39667;52.274;20.964;2022-07-25T07:50:24;100508.46;;;20.80;57.64
53754;BME280;39667;52.274;20.964;2022-07-25T07:52:53;100507.86;;;20.85;57.59
53754;BME280;39667;52.274;20.964;2022-07-25T07:55:21;100507.70;;;20.96;57.62
53754;BME280;39667;52.274;20.964;2022-07-25T07:58:07;100505.55;;;21.10;57.50
53754;BME280;39667;52.274;20.964;2022-07-25T08:00:35;100508.75;;;21.21;57.43
53754;BME280;39667;52.274;20.964;2022-07-25T08:03:05;100508.90;;;21.36;57.53
53754;BME280;39667;52.274;20.964;2022-07-25T08:05:38;100506.23;;;21.49;56.86
53754;BME280;39667;52.274;20.964;2022-07-25T08:08:07;100500.49;;;21.59;56.18
53754;BME280;39667;52.274;20.964;2022-07-25T08:10:37;100498.33;;;21.70;55.61
53754;BME280;39667;52.274;20.964;2022-07-25T08:13:31;100494.33;;;21.78;55.52
53754;BME280;39667;52.274;20.964;2022-07-25T08:16:04;100491.59;;;21.92;55.42
53754;BME280;39667;52.274;20.964;2022-07-25T08:18:31;100491.63;;;21.98;54.99
53754;BME280;39667;52.274;20.964;2022-07-25T08:21:00;100488.51;;;21.99;54.79
53754;BME280;39667;52.274;20.964;2022-07-25T08:23:33;100492.07;;;22.10;54.20
53754;BME280;39667;52.274;20.964;2022-07-25T08:26:05;100491.92;;;22.19;53.63
53754;BME280;39667;52.274;20.964;2022-07-25T08:28:32;100494.66;;;22.28;53.25
53754;BME280;39667;52.274;20.964;2022-07-25T08:30:59;100492.27;;;22.25;52.87
53754;BME280;39667;52.274;20.964;2022-07-25T08:33:26;100488.92;;;22.31;52.96
53754;BME280;39667;52.274;20.964;2022-07-25T08:35:54;100483.15;;;22.44;53.50
53754;BME280;39667;52.274;20.964;2022-07-25T08:38:27;100480.17;;;22.59;52.98
53754;BME280;39667;52.274;20.964;2022-07-25T08:40:55;100473.12;;;22.72;52.50
53754;BME280;39667;52.274;20.964;2022-07-25T08:43:22;100473.42;;;22.82;52.41
53754;BME280;39667;52.274;20.964;2022-07-25T08:45:53;100474.58;;;22.94;51.45
53754;BME280;39667;52.274;20.964;2022-07-25T08:48:23;100472.20;;;23.03;51.30
53754;BME280;39667;52.274;20.964;2022-07-25T08:50:52;100472.37;;;23.15;50.84
53754;BME280;39667;52.274;20.964;2022-07-25T08:53:20;100471.13;;;23.24;50.56
53754;BME280;39667;52.274;20.964;2022-07-25T08:56:05;100467.73;;;23.33;50.41
53754;BME280;39667;52.274;20.964;2022-07-25T08:58:40;100460.82;;;23.46;50.17
53754;BME280;39667;52.274;20.964;2022-07-25T09:01:10;100461.39;;;23.60;50.55
53754;BME280;39667;52.274;20.964;2022-07-25T09:03:38;100459.88;;;23.73;49.93
53754;BME280;39667;52.274;20.964;2022-07-25T09:06:14;100460.20;;;23.85;49.86
53754;BME280;39667;52.274;20.964;2022-07-25T09:08:52;100464.36;;;23.96;49.72
53754;BME280;39667;52.274;20.964;2022-07-25T09:14:05;100463.53;;;24.20;49.00
53754;BME280;39667;52.274;20.964;2022-07-25T09:16:36;100462.45;;;24.23;48.24
53754;BME280;39667;52.274;20.964;2022-07-25T09:19:11;100455.42;;;24.32;48.26
53754;BME280;39667;52.274;20.964;2022-07-25T09:21:39;100454.47;;;24.44;47.80
53754;BME280;39667;52.274;20.964;2022-07-25T09:24:16;100447.27;;;24.55;47.57
53754;BME280;39667;52.274;20.964;2022-07-25T09:26:50;100447.86;;;24.73;47.23
53754;BME280;39667;52.274;20.964;2022-07-25T09:29:28;100443.34;;;24.79;46.13
53754;BME280;39667;52.274;20.964;2022-07-25T09:31:57;100439.59;;;24.75;46.05
53754;BME280;39667;52.274;20.964;2022-07-25T09:34:38;100441.54;;;24.87;46.05
53754;BME280;39667;52.274;20.964;2022-07-25T09:37:10;100440.19;;;25.07;45.49
53754;BME280;39667;52.274;20.964;2022-07-25T09:39:44;100442.37;;;25.09;45.26
53754;BME280;39667;52.274;20.964;2022-07-25T09:45:23;100440.54;;;25.09;45.16
53754;BME280;39667;52.274;20.964;2022-07-25T09:48:02;100432.38;;;25.15;45.12
53754;BME280;39667;52.274;20.964;2022-07-25T09:50:31;100434.42;;;25.20;44.73
53754;BME280;39667;52.274;20.964;2022-07-25T09:53:01;100438.41;;;25.14;43.70
53754;BME280;39667;52.274;20.964;2022-07-25T09:55:29;100435.48;;;25.10;43.91
53754;BME280;39667;52.274;20.964;2022-07-25T09:57:57;100428.43;;;25.18;44.23
53754;BME280;39667;52.274;20.964;2022-07-25T10:00:26;100429.95;;;25.29;43.72
53754;BME280;39667;52.274;20.964;2022-07-25T10:05:29;100435.77;;;25.50;43.82
53754;BME280;39667;52.274;20.964;2022-07-25T10:07:57;100434.76;;;25.59;43.37
53754;BME280;39667;52.274;20.964;2022-07-25T10:10:27;100427.98;;;25.66;43.13
53754;BME280;39667;52.274;20.964;2022-07-25T10:13:02;100427.13;;;25.75;42.88
53754;BME280;39667;52.274;20.964;2022-07-25T10:15:39;100419.84;;;25.91;42.82
53754;BME280;39667;52.274;20.964;2022-07-25T10:18:06;100420.61;;;26.13;42.89
53754;BME280;39667;52.274;20.964;2022-07-25T10:20:34;100421.12;;;26.30;41.76
53754;BME280;39667;52.274;20.964;2022-07-25T10:23:01;100411.90;;;26.33;41.62
53754;BME280;39667;52.274;20.964;2022-07-25T10:25:28;100410.10;;;26.48;41.19
53754;BME280;39667;52.274;20.964;2022-07-25T10:27:59;100409.83;;;26.59;40.85
53754;BME280;39667;52.274;20.964;2022-07-25T10:30:38;100404.43;;;26.68;40.36
53754;BME280;39667;52.274;20.964;2022-07-25T10:33:17;100398.69;;;26.72;40.46
53754;BME280;39667;52.274;20.964;2022-07-25T10:35:44;100395.91;;;26.92;40.44
53754;BME280;39667;52.274;20.964;2022-07-25T10:38:11;100396.92;;;26.97;40.35
53754;BME280;39667;52.274;20.964;2022-07-25T10:40:42;100389.52;;;26.97;39.79
53754;BME280;39667;52.274;20.964;2022-07-25T10:43:21;100382.67;;;26.95;39.65
53754;BME280;39667;52.274;20.964;2022-07-25T10:45:49;100385.84;;;27.01;39.51
53754;BME280;39667;52.274;20.964;2022-07-25T10:48:26;100378.39;;;27.06;39.76
53754;BME280;39667;52.274;20.964;2022-07-25T10:50:59;100373.05;;;27.17;39.22
53754;BME280;39667;52.274;20.964;2022-07-25T10:56:22;100373.80;;;27.28;39.34
53754;BME280;39667;52.274;20.964;2022-07-25T11:01:29;100373.08;;;27.75;38.91
53754;BME280;39667;52.274;20.964;2022-07-25T11:04:01;100369.23;;;27.94;38.60
53754;BME280;39667;52.274;20.964;2022-07-25T11:08:59;100362.76;;;28.33;37.69
53754;BME280;39667;52.274;20.964;2022-07-25T11:11:38;100364.71;;;28.38;37.58
53754;BME280;39667;52.274;20.964;2022-07-25T11:14:39;100362.11;;;28.45;37.23
53754;BME280;39667;52.274;20.964;2022-07-25T11:17:18;100360.99;;;28.45;36.63
53754;BME280;39667;52.274;20.964;2022-07-25T11:22:20;100362.27;;;28.62;36.61
53754;BME280;39667;52.274;20.964;2022-07-25T11:24:47;100364.00;;;28.67;36.33
53754;BME280;39667;52.274;20.964;2022-07-25T11:27:23;100351.63;;;28.83;36.25
53754;BME280;39667;52.274;20.964;2022-07-25T11:29:51;100346.56;;;28.93;36.07
53754;BME280;39667;52.274;20.964;2022-07-25T11:32:18;100355.16;;;29.09;35.60
53754;BME280;39667;52.274;20.964;2022-07-25T11:34:52;100352.82;;;29.20;35.43
53754;BME280;39667;52.274;20.964;2022-07-25T11:37:20;100348.88;;;29.21;35.22
53754;BME280;39667;52.274;20.964;2022-07-25T11:39:47;100348.36;;;29.25;34.74
53754;BME280;39667;52.274;20.964;2022-07-25T11:42:17;100346.52;;;29.21;35.02
53754;BME280;39667;52.274;20.964;2022-07-25T11:44:50;100341.73;;;29.40;34.89
53754;BME280;39667;52.274;20.964;2022-07-25T11:47:31;100338.42;;;29.61;34.52
53754;BME280;39667;52.274;20.964;2022-07-25T11:50:02;100335.48;;;29.86;34.66
53754;BME280;39667;52.274;20.964;2022-07-25T11:52:34;100331.25;;;30.13;34.37
53754;BME280;39667;52.274;20.964;2022-07-25T11:55:04;100323.94;;;30.33;33.76
53754;BME280;39667;52.274;20.964;2022-07-25T11:57:35;100322.41;;;30.42;33.18
53754;BME280;39667;52.274;20.964;2022-07-25T12:00:08;100319.72;;;30.51;33.01
53754;BME280;39667;52.274;20.964;2022-07-25T12:02:37;100319.79;;;30.67;32.94
53754;BME280;39667;52.274;20.964;2022-07-25T12:05:06;100318.69;;;30.77;32.35
53754;BME280;39667;52.274;20.964;2022-07-25T12:07:47;100316.67;;;30.64;32.10
53754;BME280;39667;52.274;20.964;2022-07-25T12:10:17;100316.09;;;30.62;32.46
53754;BME280;39667;52.274;20.964;2022-07-25T12:12:56;100316.94;;;30.71;32.25
53754;BME280;39667;52.274;20.964;2022-07-25T12:15:25;100317.77;;;30.73;32.74
53754;BME280;39667;52.274;20.964;2022-07-25T12:17:54;100310.35;;;30.63;32.46
53754;BME280;39667;52.274;20.964;2022-07-25T12:20:24;100301.35;;;30.68;32.71
53754;BME280;39667;52.274;20.964;2022-07-25T12:22:54;100295.58;;;30.87;32.57
53754;BME280;39667;52.274;20.964;2022-07-25T12:25:22;100295.58;;;30.99;32.69
53754;BME280;39667;52.274;20.964;2022-07-25T12:27:57;100290.48;;;31.14;32.63
53754;BME280;39667;52.274;20.964;2022-07-25T12:30:28;100298.58;;;31.15;32.70
53754;BME280;39667;52.274;20.964;2022-07-25T12:32:57;100288.02;;;31.07;32.68
53754;BME280;39667;52.274;20.964;2022-07-25T12:35:24;100287.77;;;31.21;33.20
53754;BME280;39667;52.274;20.964;2022-07-25T12:37:53;100287.12;;;31.33;32.47
53754;BME280;39667;52.274;20.964;2022-07-25T12:40:21;100282.54;;;31.47;32.62
53754;BME280;39667;52.274;20.964;2022-07-25T12:42:48;100279.71;;;31.65;32.44
53754;BME280;39667;52.274;20.964;2022-07-25T12:45:16;100277.95;;;31.89;32.32
53754;BME280;39667;52.274;20.964;2022-07-25T12:47:44;100276.52;;;32.11;31.99
53754;BME280;39667;52.274;20.964;2022-07-25T12:50:12;100274.48;;;32.26;31.69
53754;BME280;39667;52.274;20.964;2022-07-25T12:52:40;100268.95;;;32.46;31.56
53754;BME280;39667;52.274;20.964;2022-07-25T12:55:11;100268.17;;;32.68;31.55
53754;BME280;39667;52.274;20.964;2022-07-25T12:57:39;100266.60;;;32.81;31.29
53754;BME280;39667;52.274;20.964;2022-07-25T13:00:09;100264.96;;;32.86;30.73
53754;BME280;39667;52.274;20.964;2022-07-25T13:02:37;100259.48;;;32.81;30.57
53754;BME280;39667;52.274;20.964;2022-07-25T13:05:05;100256.54;;;32.87;30.42
53754;BME280;39667;52.274;20.964;2022-07-25T13:07:33;100251.93;;;32.66;30.33
53754;BME280;39667;52.274;20.964;2022-07-25T13:10:01;100248.84;;;32.64;30.84